createdAt,value
2019-05-05T00:02:04.334Z,54.11
2019-05-05T00:04:45.483Z,54.11
2019-05-05T00:07:18.409Z,54.09
2019-05-05T00:09:47.438Z,54.14
2019-05-05T00:12:31.326Z,54.07
2019-05-05T00:15:19.328Z,53.98
2019-05-05T00:17:48.715Z,53.99
2019-05-05T00:20:17.807Z,53.96
2019-05-05T00:22:46.886Z,54.05
2019-05-05T00:25:15.945Z,53.97
2019-05-05T00:27:45.328Z,54.01
2019-05-05T00:30:14.518Z,54.07
2019-05-05T00:32:44.258Z,54.10
2019-05-05T00:35:14.869Z,54.09
2019-05-05T00:37:45.072Z,54.07
2019-05-05T00:40:14.312Z,53.85
2019-05-05T00:42:45.484Z,53.87
2019-05-05T00:45:14.767Z,53.99
2019-05-05T00:47:55.270Z,54.05
2019-05-05T00:50:25.285Z,54.14
2019-05-05T00:52:55.054Z,54.31
2019-05-05T00:55:24.463Z,54.39
2019-05-05T00:57:54.788Z,54.26
2019-05-05T01:00:41.603Z,54.21
2019-05-05T01:03:10.684Z,54.31
2019-05-05T01:06:04.699Z,54.39
2019-05-05T01:08:35.250Z,54.35
2019-05-05T01:11:04.590Z,54.41
2019-05-05T01:13:35.144Z,54.51
2019-05-05T01:16:04.914Z,54.47
2019-05-05T01:18:35.146Z,54.54
2019-05-05T01:21:04.659Z,54.57
2019-05-05T01:23:34.947Z,54.54
2019-05-05T01:26:05.065Z,54.58
2019-05-05T01:28:35.580Z,54.61
2019-05-05T01:31:08.594Z,54.57
2019-05-05T01:34:15.233Z,54.55
2019-05-05T01:36:45.271Z,54.72
2019-05-05T01:39:34.548Z,54.90
2019-05-05T01:42:08.917Z,54.91
2019-05-05T01:44:37.968Z,54.85
2019-05-05T01:47:07.064Z,54.89
2019-05-05T01:49:36.145Z,54.88
2019-05-05T01:52:05.140Z,54.92
2019-05-05T01:54:35.321Z,54.90
2019-05-05T01:57:05.579Z,54.91
2019-05-05T01:59:35.374Z,54.79
2019-05-05T02:02:04.503Z,54.82
2019-05-05T02:04:34.331Z,54.84
2019-05-05T02:07:05.422Z,54.86
2019-05-05T02:09:35.368Z,55.00
2019-05-05T02:12:05.288Z,55.03
2019-05-05T02:14:35.206Z,55.09
2019-05-05T02:17:05.099Z,55.17
2019-05-05T02:19:35.021Z,55.21
2019-05-05T02:22:05.293Z,55.27
2019-05-05T02:24:35.364Z,55.28
2019-05-05T02:27:05.272Z,55.43
2019-05-05T02:29:45.941Z,55.44
2019-05-05T02:32:36.928Z,55.48
2019-05-05T02:35:09.278Z,55.45
2019-05-05T02:37:38.407Z,55.53
2019-05-05T02:40:08.427Z,55.58
2019-05-05T02:42:37.433Z,55.61
2019-05-05T02:45:08.121Z,55.68
2019-05-05T02:47:55.881Z,55.65
2019-05-05T02:50:25.273Z,55.60
2019-05-05T02:52:54.438Z,55.67
2019-05-05T02:55:23.567Z,55.66
2019-05-05T02:57:54.406Z,55.54
2019-05-05T03:00:41.316Z,55.46
2019-05-05T03:03:10.932Z,55.44
2019-05-05T03:05:39.988Z,55.63
2019-05-05T03:08:09.022Z,55.53
2019-05-05T03:10:38.063Z,55.41
2019-05-05T03:13:07.081Z,55.28
2019-05-05T03:16:15.112Z,55.06
2019-05-05T03:18:44.189Z,54.90
2019-05-05T03:21:14.035Z,54.96
2019-05-05T03:23:44.007Z,54.95
2019-05-05T03:26:14.072Z,54.87
2019-05-05T03:28:47.492Z,54.87
2019-05-05T03:31:16.530Z,54.87
2019-05-05T03:33:46.195Z,54.85
2019-05-05T03:36:15.531Z,54.91
2019-05-05T03:38:44.594Z,55.12
2019-05-05T03:41:21.333Z,54.83
2019-05-05T03:44:24.633Z,54.61
2019-05-05T03:46:54.385Z,54.51
2019-05-05T03:49:24.387Z,54.45
2019-05-05T03:51:54.347Z,54.45
2019-05-05T03:54:23.919Z,54.42
2019-05-05T03:57:08.035Z,54.25
2019-05-05T03:59:39.351Z,54.08
2019-05-05T04:02:31.213Z,53.99
2019-05-05T04:05:08.096Z,53.96
2019-05-05T04:07:37.174Z,53.96
2019-05-05T04:10:06.396Z,53.85
2019-05-05T04:12:35.479Z,53.82
2019-05-05T04:15:04.902Z,53.68
2019-05-05T04:18:03.908Z,53.78
2019-05-05T04:20:37.080Z,53.63
2019-05-05T04:23:06.157Z,53.41
2019-05-05T04:25:35.280Z,53.50
2019-05-05T04:28:04.612Z,53.47
2019-05-05T04:30:33.986Z,53.44
2019-05-05T04:33:03.904Z,53.44
2019-05-05T04:35:33.931Z,53.53
2019-05-05T04:38:04.741Z,53.41
2019-05-05T04:40:34.634Z,53.26
2019-05-05T04:43:03.948Z,53.26
2019-05-05T04:45:34.747Z,53.24
2019-05-05T04:48:27.733Z,53.27
2019-05-05T04:51:14.107Z,53.16
2019-05-05T04:54:00.633Z,52.92
2019-05-05T04:56:30.155Z,52.84
2019-05-05T04:58:59.284Z,52.71
2019-05-05T05:01:28.318Z,52.72
2019-05-05T05:04:07.515Z,52.56
2019-05-05T05:06:43.634Z,52.48
2019-05-05T05:09:14.592Z,52.32
2019-05-05T05:11:44.291Z,52.30
2019-05-05T05:14:14.372Z,52.26
2019-05-05T05:16:43.833Z,52.22
2019-05-05T05:19:13.796Z,52.29
2019-05-05T05:21:43.695Z,52.39
2019-05-05T05:24:14.677Z,52.40
2019-05-05T05:26:44.239Z,52.10
2019-05-05T05:29:15.069Z,51.95
2019-05-05T05:31:44.422Z,51.84
2019-05-05T05:34:14.857Z,51.80
2019-05-05T05:36:44.384Z,51.65
2019-05-05T05:39:21.923Z,51.49
2019-05-05T05:41:51.023Z,51.44
2019-05-05T05:44:57.493Z,51.12
2019-05-05T05:47:44.196Z,50.88
2019-05-05T05:50:38.159Z,50.68
2019-05-05T05:53:07.230Z,50.28
2019-05-05T05:55:36.250Z,50.23
2019-05-05T05:58:05.517Z,50.25
2019-05-05T06:00:34.597Z,50.00
2019-05-05T06:03:04.049Z,49.73
2019-05-05T06:05:34.328Z,49.34
2019-05-05T06:08:04.778Z,49.40
2019-05-05T06:10:34.094Z,49.28
2019-05-05T06:13:04.119Z,49.12
2019-05-05T06:15:33.902Z,49.32
2019-05-05T06:18:04.611Z,49.26
2019-05-05T06:20:34.471Z,49.09
2019-05-05T06:23:04.215Z,48.90
2019-05-05T06:25:34.250Z,48.88
2019-05-05T06:28:04.298Z,48.95
2019-05-05T06:30:33.780Z,48.92
2019-05-05T06:33:04.892Z,49.04
2019-05-05T06:35:34.114Z,49.03
2019-05-05T06:38:04.685Z,49.32
2019-05-05T06:40:58.890Z,49.39
2019-05-05T06:43:35.713Z,49.23
2019-05-05T06:46:06.541Z,49.12
2019-05-05T06:48:35.548Z,48.96
2019-05-05T06:51:04.646Z,48.63
2019-05-05T06:53:34.175Z,48.43
2019-05-05T06:56:04.053Z,48.44
2019-05-05T06:58:34.694Z,48.40
2019-05-05T07:01:03.920Z,47.98
2019-05-05T07:03:33.619Z,48.07
2019-05-05T07:06:04.370Z,47.59
2019-05-05T07:08:34.647Z,47.65
2019-05-05T07:11:04.310Z,47.94
2019-05-05T07:13:34.030Z,48.07
2019-05-05T07:16:04.841Z,47.79
2019-05-05T07:18:34.270Z,47.94
2019-05-05T07:21:03.785Z,47.81
2019-05-05T07:23:34.048Z,47.73
2019-05-05T07:26:04.158Z,48.01
2019-05-05T07:28:34.175Z,47.96
2019-05-05T07:31:04.496Z,47.98
2019-05-05T07:33:34.578Z,47.05
2019-05-05T07:36:28.698Z,47.13
2019-05-05T07:38:57.761Z,47.13
2019-05-05T07:41:26.842Z,46.81
2019-05-05T07:43:55.894Z,46.51
2019-05-05T07:46:25.053Z,46.52
2019-05-05T07:48:54.525Z,46.57
2019-05-05T07:51:24.229Z,46.36
2019-05-05T07:53:54.635Z,46.28
2019-05-05T07:56:23.891Z,45.84
2019-05-05T07:58:54.344Z,45.90
2019-05-05T08:01:24.503Z,45.39
2019-05-05T08:03:53.948Z,45.28
2019-05-05T08:06:23.690Z,45.06
2019-05-05T08:08:54.616Z,44.24
2019-05-05T08:11:23.972Z,43.31
2019-05-05T08:13:54.734Z,42.38
2019-05-05T08:16:44.067Z,42.11
2019-05-05T08:19:31.741Z,40.19
2019-05-05T08:22:00.781Z,38.17
2019-05-05T08:24:51.864Z,35.80
2019-05-05T08:27:44.699Z,34.83
2019-05-05T08:30:26.054Z,34.07
2019-05-05T08:32:55.187Z,33.50
2019-05-05T08:35:24.641Z,34.23
2019-05-05T08:37:54.239Z,34.06
2019-05-05T08:40:24.087Z,34.33
2019-05-05T08:42:53.935Z,34.00
2019-05-05T08:45:26.191Z,33.87
2019-05-05T08:47:54.362Z,33.98
2019-05-05T08:50:26.448Z,33.93
2019-05-05T08:52:54.298Z,33.13
2019-05-05T08:55:24.896Z,32.93
2019-05-05T08:57:54.152Z,33.38
2019-05-05T09:00:24.477Z,33.73
2019-05-05T09:02:54.315Z,34.37
2019-05-05T09:05:23.903Z,35.31
2019-05-05T09:07:54.797Z,35.97
2019-05-05T09:10:23.958Z,36.74
2019-05-05T09:12:54.262Z,37.50
2019-05-05T09:15:24.295Z,37.68
2019-05-05T09:17:54.418Z,38.12
2019-05-05T09:20:24.277Z,38.47
2019-05-05T09:22:53.699Z,37.92
2019-05-05T09:25:41.931Z,37.85
2019-05-05T09:28:25.913Z,38.09
2019-05-05T09:30:54.959Z,38.13
2019-05-05T09:33:24.735Z,37.53
2019-05-05T09:35:54.233Z,37.76
2019-05-05T09:38:23.962Z,37.11
2019-05-05T09:40:54.443Z,34.93
2019-05-05T09:43:24.132Z,33.43
2019-05-05T09:45:54.464Z,32.31
2019-05-05T09:48:24.367Z,32.22
2019-05-05T09:50:54.140Z,31.61
2019-05-05T09:53:24.049Z,31.07
2019-05-05T09:55:54.728Z,30.39
2019-05-05T09:58:24.286Z,30.85
2019-05-05T10:00:54.715Z,29.96
2019-05-05T10:03:23.898Z,30.31
2019-05-05T10:05:54.041Z,29.77
2019-05-05T10:08:23.685Z,29.23
2019-05-05T10:10:54.741Z,28.64
2019-05-05T10:13:24.006Z,28.52
2019-05-05T10:15:54.915Z,27.06
2019-05-05T10:18:25.549Z,25.80
2019-05-05T10:20:54.752Z,24.70
2019-05-05T10:23:25.513Z,24.59
2019-05-05T10:25:58.466Z,23.66
2019-05-05T10:28:27.560Z,24.14
2019-05-05T10:30:56.581Z,24.90
2019-05-05T10:33:25.654Z,26.82
2019-05-05T10:35:54.673Z,28.61
2019-05-05T10:38:23.705Z,30.40
2019-05-05T10:40:53.717Z,31.13
2019-05-05T10:43:23.833Z,32.00
2019-05-05T10:45:54.655Z,32.99
2019-05-05T10:48:23.898Z,33.42
2019-05-05T10:50:53.727Z,33.91
2019-05-05T10:53:22.962Z,33.98
2019-05-05T10:55:53.963Z,34.76
2019-05-05T10:58:24.408Z,35.04
2019-05-05T11:00:58.605Z,35.22
2019-05-05T11:03:27.725Z,35.31
2019-05-05T11:05:56.782Z,35.84
2019-05-05T11:08:25.823Z,36.47
2019-05-05T11:10:54.877Z,36.30
2019-05-05T11:13:24.069Z,36.45
2019-05-05T11:15:54.727Z,36.19
2019-05-05T11:18:23.953Z,35.96
2019-05-05T11:20:54.474Z,35.97
2019-05-05T11:23:24.956Z,35.31
2019-05-05T11:25:54.615Z,35.18
2019-05-05T11:28:23.747Z,34.82
2019-05-05T11:30:54.304Z,34.75
2019-05-05T11:33:43.714Z,34.33
2019-05-05T11:36:19.282Z,33.47
2019-05-05T11:38:50.837Z,31.57
2019-05-05T11:41:19.955Z,29.58
2019-05-05T11:43:49.194Z,28.39
2019-05-05T11:46:18.884Z,28.37
2019-05-05T11:48:48.121Z,27.45
2019-05-05T11:51:17.263Z,27.77
2019-05-05T11:53:46.343Z,26.86
2019-05-05T11:56:15.518Z,27.62
2019-05-05T11:58:47.061Z,28.33
2019-05-05T12:01:16.457Z,28.19
2019-05-05T12:03:45.588Z,28.55
2019-05-05T12:06:14.967Z,27.74
2019-05-05T12:08:45.907Z,28.66
2019-05-05T12:11:15.618Z,27.56
2019-05-05T12:13:44.866Z,27.18
2019-05-05T12:16:15.823Z,27.36
2019-05-05T12:18:45.047Z,27.53
2019-05-05T12:21:18.278Z,27.04
2019-05-05T12:23:47.881Z,26.68
2019-05-05T12:26:34.989Z,25.46
2019-05-05T12:29:09.876Z,25.19
2019-05-05T12:31:44.409Z,25.62
2019-05-05T12:34:13.689Z,25.81
2019-05-05T12:36:44.527Z,26.55
2019-05-05T12:39:16.742Z,26.64
2019-05-05T12:41:45.770Z,28.14
2019-05-05T12:44:23.979Z,29.50
2019-05-05T12:47:14.337Z,30.68
2019-05-05T12:49:43.966Z,31.93
2019-05-05T12:52:13.919Z,33.98
2019-05-05T12:54:44.049Z,35.46
2019-05-05T12:57:13.735Z,36.75
2019-05-05T12:59:44.446Z,37.67
2019-05-05T13:02:14.307Z,38.12
2019-05-05T13:04:43.511Z,38.41
2019-05-05T13:07:13.626Z,39.25
2019-05-05T13:09:44.044Z,39.44
2019-05-05T13:12:15.023Z,39.64
2019-05-05T13:14:44.336Z,40.11
2019-05-05T13:17:14.281Z,40.73
2019-05-05T13:19:56.639Z,40.55
2019-05-05T13:22:44.816Z,40.27
2019-05-05T13:25:56.171Z,40.33
2019-05-05T13:28:23.342Z,39.76
2019-05-05T13:30:54.073Z,39.14
2019-05-05T13:33:24.665Z,38.91
2019-05-05T13:35:53.890Z,38.68
2019-05-05T13:38:23.921Z,38.49
2019-05-05T13:40:54.402Z,38.11
2019-05-05T13:43:23.828Z,37.54
2019-05-05T13:46:07.958Z,38.08
2019-05-05T13:48:37.049Z,37.27
2019-05-05T13:51:07.023Z,36.15
2019-05-05T13:53:36.254Z,35.33
2019-05-05T13:56:11.743Z,34.87
2019-05-05T13:58:36.141Z,35.11
2019-05-05T14:01:05.246Z,35.34
2019-05-05T14:03:34.365Z,35.39
2019-05-05T14:06:04.759Z,34.68
2019-05-05T14:08:36.241Z,34.96
2019-05-05T14:11:04.815Z,34.62
2019-05-05T14:13:34.273Z,33.96
2019-05-05T14:16:03.989Z,33.13
2019-05-05T14:18:33.532Z,32.78
2019-05-05T14:21:02.653Z,32.94
2019-05-05T14:23:34.548Z,33.12
2019-05-05T14:26:04.110Z,32.51
2019-05-05T14:28:34.040Z,32.30
2019-05-05T14:31:09.230Z,32.95
2019-05-05T14:34:06.371Z,32.75
2019-05-05T14:36:57.519Z,32.80
2019-05-05T14:39:26.650Z,32.69
2019-05-05T14:41:55.698Z,32.70
2019-05-05T14:44:24.762Z,33.05
2019-05-05T14:46:53.835Z,33.02
2019-05-05T14:49:24.608Z,33.29
2019-05-05T14:51:53.943Z,33.01
2019-05-05T14:54:22.991Z,32.64
2019-05-05T14:56:52.081Z,32.75
2019-05-05T14:59:21.145Z,33.01
2019-05-05T15:01:50.188Z,33.21
2019-05-05T15:04:20.628Z,33.86
2019-05-05T15:07:00.109Z,33.31
2019-05-05T15:09:40.381Z,33.27
2019-05-05T15:12:31.044Z,33.19
2019-05-05T15:15:00.065Z,33.16
2019-05-05T15:17:29.402Z,32.91
2019-05-05T15:19:58.495Z,32.88
2019-05-05T15:22:28.657Z,32.86
2019-05-05T15:24:57.871Z,33.03
2019-05-05T15:27:27.007Z,33.46
2019-05-05T15:29:56.156Z,33.53
2019-05-05T15:32:25.205Z,33.87
2019-05-05T15:34:54.675Z,34.24
2019-05-05T15:37:23.945Z,34.54
2019-05-05T15:39:53.724Z,34.53
2019-05-05T15:42:22.894Z,34.65
2019-05-05T15:44:54.258Z,34.86
2019-05-05T15:47:23.644Z,34.74
2019-05-05T15:49:53.358Z,35.26
2019-05-05T15:52:24.315Z,35.17
2019-05-05T15:54:53.978Z,34.42
2019-05-05T15:57:24.153Z,34.07
2019-05-05T15:59:54.280Z,34.01
2019-05-05T16:02:24.409Z,34.10
2019-05-05T16:04:54.098Z,33.73
2019-05-05T16:07:24.266Z,33.17
2019-05-05T16:09:53.835Z,33.09
2019-05-05T16:12:33.389Z,32.77
2019-05-05T16:15:13.823Z,31.57
2019-05-05T16:17:48.448Z,31.22
2019-05-05T16:20:24.371Z,30.69
2019-05-05T16:23:14.299Z,30.34
2019-05-05T16:25:46.295Z,30.60
2019-05-05T16:28:14.600Z,30.47
2019-05-05T16:30:44.553Z,30.30
2019-05-05T16:33:13.897Z,30.30
2019-05-05T16:35:43.756Z,30.70
2019-05-05T16:38:14.902Z,30.81
2019-05-05T16:40:44.468Z,30.84
2019-05-05T16:43:16.560Z,30.83
2019-05-05T16:45:44.684Z,30.82
2019-05-05T16:48:16.220Z,31.19
2019-05-05T16:50:45.399Z,31.57
2019-05-05T16:53:34.296Z,31.68
2019-05-05T16:56:04.503Z,31.61
2019-05-05T16:58:33.842Z,31.77
2019-05-05T17:01:03.765Z,32.07
2019-05-05T17:03:33.067Z,32.20
2019-05-05T17:06:03.774Z,32.23
2019-05-05T17:08:33.752Z,32.61
2019-05-05T17:11:03.105Z,32.89
2019-05-05T17:13:46.946Z,32.94
2019-05-05T17:16:35.283Z,32.97
2019-05-05T17:19:23.555Z,33.27
2019-05-05T17:22:11.188Z,33.44
2019-05-05T17:24:40.338Z,33.53
2019-05-05T17:27:09.419Z,33.80
2019-05-05T17:29:38.703Z,33.95
2019-05-05T17:32:07.904Z,33.97
2019-05-05T17:34:37.143Z,34.77
2019-05-05T17:37:07.992Z,34.88
2019-05-05T17:39:43.643Z,35.68
2019-05-05T17:42:36.643Z,35.70
2019-05-05T17:45:34.329Z,35.42
2019-05-05T17:48:16.774Z,35.03
2019-05-05T17:51:04.402Z,34.28
2019-05-05T17:53:39.694Z,34.77
2019-05-05T17:56:10.941Z,34.63
2019-05-05T17:58:40.044Z,34.61
2019-05-05T18:01:09.132Z,34.87
2019-05-05T18:03:38.286Z,34.97
2019-05-05T18:06:18.200Z,35.36
2019-05-05T18:08:54.065Z,35.58
2019-05-05T18:11:47.265Z,35.60
2019-05-05T18:14:20.893Z,35.71
2019-05-05T18:16:50.109Z,35.51
2019-05-05T18:19:19.136Z,35.81
2019-05-05T18:21:48.376Z,35.69
2019-05-05T18:24:18.747Z,35.62
2019-05-05T18:26:47.801Z,35.62
2019-05-05T18:29:16.860Z,35.77
2019-05-05T18:31:45.984Z,36.10
2019-05-05T18:34:15.041Z,36.12
2019-05-05T18:36:44.640Z,36.25
2019-05-05T18:39:13.855Z,36.65
2019-05-05T18:41:51.803Z,36.71
2019-05-05T18:44:31.008Z,36.96
2019-05-05T18:47:17.527Z,36.97
2019-05-05T18:49:44.317Z,37.12
2019-05-05T18:52:13.971Z,37.32
2019-05-05T18:54:43.731Z,37.71
2019-05-05T18:57:13.005Z,37.65
2019-05-05T18:59:42.035Z,37.65
2019-05-05T19:02:29.099Z,37.76
2019-05-05T19:05:15.719Z,37.86
2019-05-05T19:07:55.517Z,38.17
2019-05-05T19:10:19.474Z,38.43
2019-05-05T19:12:50.744Z,38.63
2019-05-05T19:15:19.459Z,38.93
2019-05-05T19:17:48.613Z,39.05
2019-05-05T19:20:36.633Z,39.05
2019-05-05T19:23:06.080Z,39.17
2019-05-05T19:25:35.876Z,39.34
2019-05-05T19:28:05.285Z,39.39
2019-05-05T19:30:36.084Z,39.54
2019-05-05T19:33:05.747Z,39.78
2019-05-05T19:35:43.977Z,39.81
2019-05-05T19:38:05.804Z,39.93
2019-05-05T19:40:34.858Z,40.39
2019-05-05T19:43:04.748Z,40.53
2019-05-05T19:45:34.595Z,40.68
2019-05-05T19:48:06.036Z,41.02
2019-05-05T19:50:41.949Z,41.26
2019-05-05T19:53:24.740Z,41.42
2019-05-05T19:55:54.858Z,41.54
2019-05-05T19:58:24.101Z,41.82
2019-05-05T20:00:54.927Z,42.09
2019-05-05T20:03:24.262Z,42.04
2019-05-05T20:05:54.102Z,42.12
2019-05-05T20:08:24.056Z,42.20
2019-05-05T20:10:54.138Z,42.35
2019-05-05T20:13:23.366Z,42.56
2019-05-05T20:16:04.486Z,42.57
2019-05-05T20:18:34.243Z,42.64
2019-05-05T20:21:06.898Z,42.95
2019-05-05T20:23:34.196Z,43.09
2019-05-05T20:26:04.057Z,43.28
2019-05-05T20:28:33.897Z,43.45
2019-05-05T20:31:03.687Z,43.69
2019-05-05T20:33:46.964Z,43.75
2019-05-05T20:36:19.231Z,43.97
2019-05-05T20:38:50.550Z,44.38
2019-05-05T20:41:20.745Z,44.44
2019-05-05T20:43:49.948Z,44.59
2019-05-05T20:46:19.130Z,44.71
2019-05-05T20:49:09.134Z,44.93
2019-05-05T20:51:45.044Z,45.00
2019-05-05T20:54:28.111Z,45.16
2019-05-05T20:57:04.319Z,45.44
2019-05-05T20:59:34.254Z,45.55
2019-05-05T21:02:04.451Z,45.65
2019-05-05T21:04:34.523Z,45.87
2019-05-05T21:07:04.578Z,45.93
2019-05-05T21:09:34.639Z,46.11
2019-05-05T21:12:04.725Z,46.21
2019-05-05T21:14:37.399Z,46.19
2019-05-05T21:17:04.786Z,46.18
2019-05-05T21:19:34.527Z,46.03
2019-05-05T21:22:22.763Z,46.03
2019-05-05T21:24:54.140Z,46.11
2019-05-05T21:27:24.474Z,46.30
2019-05-05T21:29:54.397Z,46.34
2019-05-05T21:32:25.370Z,46.65
2019-05-05T21:34:54.728Z,46.76
2019-05-05T21:37:24.911Z,46.86
2019-05-05T21:39:55.129Z,46.92
2019-05-05T21:42:24.439Z,46.97
2019-05-05T21:44:53.992Z,47.20
2019-05-05T21:47:23.999Z,47.20
2019-05-05T21:49:54.241Z,47.32
2019-05-05T21:52:35.568Z,47.49
2019-05-05T21:55:29.900Z,47.56
2019-05-05T21:58:23.284Z,47.63
2019-05-05T22:01:15.148Z,47.72
2019-05-05T22:03:44.456Z,47.96
2019-05-05T22:06:14.559Z,47.95
2019-05-05T22:08:43.774Z,48.18
2019-05-05T22:11:14.646Z,48.46
2019-05-05T22:13:44.219Z,48.45
2019-05-05T22:16:13.774Z,48.49
2019-05-05T22:18:44.621Z,48.46
2019-05-05T22:21:43.567Z,48.60
2019-05-05T22:24:24.788Z,48.68
2019-05-05T22:26:54.285Z,48.89
2019-05-05T22:29:24.895Z,49.16
2019-05-05T22:31:54.144Z,49.26
2019-05-05T22:34:24.098Z,49.24
2019-05-05T22:36:53.343Z,49.29
2019-05-05T22:39:24.388Z,49.34
2019-05-05T22:41:54.505Z,49.21
2019-05-05T22:44:24.357Z,49.27
2019-05-05T22:46:53.842Z,49.38
2019-05-05T22:49:24.183Z,49.43
2019-05-05T22:51:54.170Z,49.54
2019-05-05T22:54:24.112Z,49.65
2019-05-05T22:56:53.848Z,49.72
2019-05-05T22:59:24.216Z,49.83
2019-05-05T23:01:54.198Z,49.98
2019-05-05T23:04:43.711Z,50.04
2019-05-05T23:07:28.647Z,50.12
2019-05-05T23:09:57.797Z,50.28
2019-05-05T23:12:26.894Z,50.46
2019-05-05T23:14:55.939Z,50.53
2019-05-05T23:17:35.135Z,50.43
2019-05-05T23:20:28.018Z,50.62
2019-05-05T23:23:04.757Z,50.43
2019-05-05T23:25:37.550Z,50.41
2019-05-05T23:28:06.643Z,50.44
2019-05-05T23:30:41.581Z,50.55
2019-05-05T23:33:06.546Z,50.61
2019-05-05T23:35:35.547Z,50.74
2019-05-05T23:38:04.662Z,50.70
2019-05-05T23:40:34.014Z,50.87
2019-05-05T23:43:04.512Z,51.00
2019-05-05T23:45:34.097Z,51.05
2019-05-05T23:48:03.812Z,51.18
2019-05-05T23:50:33.827Z,51.27
2019-05-05T23:53:02.990Z,51.34
2019-05-05T23:55:32.024Z,51.51
2019-05-05T23:58:03.755Z,51.69
